Time;durP1;ratioP1;P1;durP2;ratioP2;P2;SDS_P1;SDS_P2;PMS_P1;PMS_P2;Temp;Humidity;BMP_temperature;BMP_pressure;BME280_temperature;BME280_humidity;BME280_pressure;Samples;Min_cycle;Max_cycle;Signal;HPM_P1;HPM_P2
2022/11/05 00:10:26;;;;;;;9.63;4.82;;;10.00;91.60;;;;;;5025350;28;20037;-81
2022/11/05 00:18:23;;;;;;;9.75;4.38;;;10.10;91.60;;;;;;5026649;28;20432;-80
2022/11/05 00:20:48;;;;;;;12.70;4.85;;;10.20;91.70;;;;;;5023768;28;20029;-81
2022/11/05 00:26:04;;;;;;;11.00;3.47;;;10.30;91.70;;;;;;5019530;28;20040;-79
2022/11/05 00:28:30;;;;;;;9.05;3.85;;;10.40;92.00;;;;;;5023649;28;20026;-81
2022/11/05 00:31:01;;;;;;;11.60;4.20;;;10.50;91.80;;;;;;5023852;28;20033;-82
2022/11/05 00:33:27;;;;;;;8.77;3.95;;;10.50;91.70;;;;;;5021944;28;20013;-82
2022/11/05 00:35:53;;;;;;;8.88;3.72;;;10.60;91.70;;;;;;5023461;28;20022;-81
2022/11/05 00:38:19;;;;;;;7.63;3.70;;;10.60;91.60;;;;;;5020641;28;20047;-81
2022/11/05 00:40:44;;;;;;;7.50;3.75;;;10.60;91.60;;;;;;5025808;28;20029;-81
2022/11/05 00:45:55;;;;;;;10.05;3.05;;;10.70;91.30;;;;;;5024250;28;20442;-80
2022/11/05 00:51:07;;;;;;;7.10;3.10;;;10.60;91.20;;;;;;5013957;28;20040;-82
2022/11/05 00:53:32;;;;;;;9.95;4.03;;;10.50;91.10;;;;;;5021584;28;20024;-81
2022/11/05 00:55:59;;;;;;;9.13;3.17;;;10.60;91.10;;;;;;5035711;28;20337;-82
2022/11/05 00:58:27;;;;;;;6.22;3.47;;;10.60;91.10;;;;;;5020045;28;20396;-80
2022/11/05 01:00:55;;;;;;;9.25;3.20;;;10.50;90.90;;;;;;5027226;28;20021;-82
2022/11/05 01:03:24;;;;;;;8.23;3.08;;;10.50;90.80;;;;;;5016055;28;20026;-82
2022/11/05 01:05:53;;;;;;;7.28;3.67;;;10.50;90.80;;;;;;5020445;28;20037;-82
2022/11/05 01:08:21;;;;;;;8.43;3.88;;;10.50;90.80;;;;;;5017530;28;20083;-82
2022/11/05 01:10:50;;;;;;;11.25;3.33;;;10.50;90.70;;;;;;5021481;28;20080;-83
2022/11/05 01:13:18;;;;;;;11.50;3.80;;;10.40;90.60;;;;;;5017105;28;20025;-82
2022/11/05 01:15:44;;;;;;;9.02;3.33;;;10.40;90.50;;;;;;5024697;28;20038;-81
2022/11/05 01:18:12;;;;;;;6.50;3.28;;;10.40;90.50;;;;;;5021700;28;20022;-81
2022/11/05 01:20:38;;;;;;;8.88;3.72;;;10.30;90.30;;;;;;5022072;28;20095;-82
2022/11/05 01:23:04;;;;;;;6.75;2.95;;;10.30;90.30;;;;;;5025139;28;20046;-82
2022/11/05 01:25:30;;;;;;;6.30;3.67;;;10.30;90.30;;;;;;5029046;28;20014;-81
2022/11/05 01:27:57;;;;;;;6.45;3.95;;;10.20;90.20;;;;;;5028164;28;20403;-81
2022/11/05 01:30:23;;;;;;;10.23;3.58;;;10.20;90.20;;;;;;5026272;28;20072;-82
2022/11/05 01:32:49;;;;;;;9.93;4.03;;;10.20;90.20;;;;;;5027181;28;20076;-81
2022/11/05 01:35:16;;;;;;;7.53;3.42;;;10.10;90.20;;;;;;5025083;28;20045;-83
2022/11/05 01:37:42;;;;;;;9.27;3.90;;;10.10;90.20;;;;;;5024074;28;20045;-83
2022/11/05 01:40:20;;;;;;;8.73;3.90;;;10.00;90.30;;;;;;5028359;28;20031;-82
2022/11/05 01:42:46;;;;;;;10.23;4.32;;;10.00;90.30;;;;;;5017176;28;20056;-83
2022/11/05 01:45:12;;;;;;;8.65;4.07;;;10.00;90.30;;;;;;5017833;28;20022;-83
2022/11/05 01:47:41;;;;;;;11.88;4.47;;;10.00;90.40;;;;;;5018135;28;20030;-83
2022/11/05 01:50:20;;;;;;;9.70;4.43;;;9.90;90.40;;;;;;5011339;28;20136;-81
2022/11/05 01:52:48;;;;;;;8.40;3.90;;;9.90;90.50;;;;;;5025212;28;20036;-82
2022/11/05 01:55:18;;;;;;;8.95;4.88;;;9.90;90.50;;;;;;5027139;28;20037;-82
2022/11/05 01:57:44;;;;;;;12.15;4.43;;;9.80;90.50;;;;;;5018675;28;20512;-82
2022/11/05 02:00:11;;;;;;;10.85;4.75;;;9.80;90.60;;;;;;5028656;28;20036;-83
2022/11/05 02:02:37;;;;;;;8.63;4.35;;;9.70;90.50;;;;;;5020172;28;20017;-80
2022/11/05 02:05:05;;;;;;;14.45;4.65;;;9.80;90.60;;;;;;5009778;28;20403;-81
2022/11/05 02:07:32;;;;;;;6.80;4.90;;;9.70;90.50;;;;;;5022551;28;20025;-80
2022/11/05 02:10:06;;;;;;;11.00;5.43;;;9.70;90.50;;;;;;5021605;28;20033;-82
2022/11/05 02:12:35;;;;;;;8.95;5.63;;;9.70;90.50;;;;;;5023567;28;20539;-80
2022/11/05 02:15:00;;;;;;;8.95;5.60;;;9.70;90.50;;;;;;5014442;28;20036;-82
2022/11/05 02:17:51;;;;;;;11.20;5.38;;;9.60;90.40;;;;;;5013931;28;20042;-82
2022/11/05 02:20:38;;;;;;;11.80;5.55;;;9.60;90.40;;;;;;5008443;28;20030;-81
2022/11/05 02:23:12;;;;;;;10.90;5.78;;;9.60;90.40;;;;;;5022859;28;20833;-81
2022/11/05 02:25:53;;;;;;;10.73;5.47;;;9.60;90.40;;;;;;5014517;28;20045;-79
2022/11/05 02:28:56;;;;;;;10.00;5.57;;;9.50;90.50;;;;;;5026784;28;20025;-81
2022/11/05 02:31:40;;;;;;;13.18;5.68;;;9.50;90.50;;;;;;5026876;28;20021;-80
2022/11/05 02:34:26;;;;;;;8.63;6.05;;;9.50;90.50;;;;;;5013852;28;20084;-81
2022/11/05 02:37:32;;;;;;;13.25;6.85;;;9.50;90.60;;;;;;5028455;28;20033;-81
2022/11/05 02:40:19;;;;;;;9.68;6.30;;;9.40;90.70;;;;;;5031854;28;20032;-80
2022/11/05 02:42:54;;;;;;;9.85;6.72;;;9.50;90.90;;;;;;5025090;28;20130;-80
2022/11/05 02:45:34;;;;;;;13.68;7.78;;;9.40;91.00;;;;;;5025253;28;20029;-81
2022/11/05 02:48:12;;;;;;;57.40;25.02;;;9.40;91.10;;;;;;5023843;28;20021;-82
2022/11/05 02:51:02;;;;;;;67.15;25.33;;;9.30;91.10;;;;;;5032523;28;20468;-80
2022/11/05 02:54:03;;;;;;;69.43;28.30;;;9.40;91.20;;;;;;5028874;28;20033;-81
2022/11/05 02:56:34;;;;;;;60.08;25.17;;;9.30;91.20;;;;;;5027686;28;20042;-81
2022/11/05 02:58:59;;;;;;;67.47;29.88;;;9.30;91.10;;;;;;5017935;28;20041;-83
2022/11/05 03:01:25;;;;;;;45.78;21.65;;;9.30;91.20;;;;;;5015592;28;20029;-81
2022/11/05 03:03:55;;;;;;;46.97;20.83;;;9.30;91.20;;;;;;5031490;28;20052;-82
2022/11/05 03:06:38;;;;;;;55.90;25.05;;;9.30;91.20;;;;;;5020038;28;20079;-83
2022/11/05 03:09:30;;;;;;;47.92;24.15;;;9.30;91.20;;;;;;5026476;28;20467;-83
2022/11/05 03:12:20;;;;;;;29.00;14.52;;;9.20;91.30;;;;;;5018024;28;20044;-81
2022/11/05 03:14:56;;;;;;;20.70;12.10;;;9.20;91.40;;;;;;5025955;28;20026;-81
2022/11/05 03:17:33;;;;;;;20.02;11.98;;;9.20;91.60;;;;;;5017804;28;20087;-81
2022/11/05 03:20:15;;;;;;;14.80;9.90;;;9.10;91.70;;;;;;5029211;28;20574;-81
2022/11/05 03:22:54;;;;;;;17.23;10.15;;;9.10;91.90;;;;;;5028188;28;20045;-82
2022/11/05 03:25:22;;;;;;;13.10;8.38;;;9.10;92.00;;;;;;5018639;28;20109;-81
2022/11/05 03:27:54;;;;;;;21.92;9.43;;;9.10;92.00;;;;;;5011504;28;20435;-81
2022/11/05 03:30:20;;;;;;;14.70;9.60;;;9.10;92.00;;;;;;5020343;28;20057;-80
2022/11/05 03:32:52;;;;;;;14.18;8.35;;;9.10;91.90;;;;;;5033888;28;20060;-83
2022/11/05 03:35:40;;;;;;;15.52;8.20;;;9.10;91.90;;;;;;5026021;28;20021;-82
2022/11/05 03:38:12;;;;;;;13.20;7.65;;;9.10;92.00;;;;;;5019460;28;20072;-80
2022/11/05 03:40:41;;;;;;;11.52;7.10;;;9.10;91.90;;;;;;5027525;28;20140;-81
2022/11/05 03:43:07;;;;;;;10.63;6.20;;;9.10;92.00;;;;;;5016756;28;20030;-81
2022/11/05 03:45:45;;;;;;;11.43;6.85;;;9.10;92.00;;;;;;5022955;28;20415;-80
2022/11/05 03:48:14;;;;;;;14.18;7.15;;;9.00;92.00;;;;;;5021995;28;20029;-83
2022/11/05 03:51:15;;;;;;;10.38;6.93;;;9.00;92.00;;;;;;5025905;28;20029;-81
2022/11/05 03:53:52;;;;;;;;;;;9.00;92.00;;;;;;5011004;28;20108;-82
2022/11/05 03:56:41;;;;;;;12.32;7.38;;;9.00;91.90;;;;;;5027925;28;19974;-82
2022/11/05 03:59:09;;;;;;;10.20;7.28;;;9.00;91.70;;;;;;5016767;28;20038;-81
2022/11/05 04:01:36;;;;;;;13.57;9.40;;;9.00;91.70;;;;;;5027370;28;20127;-80
2022/11/05 04:04:05;;;;;;;14.75;9.82;;;8.90;91.70;;;;;;5019464;28;20812;-81
2022/11/05 04:14:43;;;;;;;13.40;8.45;;;8.90;91.60;;;;;;5022662;28;20048;-81
2022/11/05 04:17:09;;;;;;;13.70;7.88;;;8.90;91.50;;;;;;5021162;28;20042;-81
2022/11/05 04:25:07;;;;;;;11.10;7.25;;;8.80;91.10;;;;;;5019750;28;20115;-81
2022/11/05 04:27:32;;;;;;;13.40;8.23;;;8.80;91.20;;;;;;5021302;28;20402;-82
2022/11/05 04:32:42;;;;;;;14.00;7.32;;;8.80;91.20;;;;;;5029887;28;20064;-82
2022/11/05 04:35:07;;;;;;;15.60;7.55;;;8.70;91.20;;;;;;5024085;28;20476;-81
2022/11/05 04:37:34;;;;;;;14.40;8.00;;;8.70;91.30;;;;;;5027174;28;20056;-82
2022/11/05 04:40:01;;;;;;;15.55;8.35;;;8.70;91.40;;;;;;5025767;28;20030;-83
2022/11/05 04:42:27;;;;;;;14.85;8.50;;;8.70;91.50;;;;;;5022526;28;20054;-81
2022/11/05 04:44:53;;;;;;;13.20;8.10;;;8.70;91.50;;;;;;5018145;28;20034;-82
2022/11/05 04:47:18;;;;;;;10.45;7.13;;;8.70;91.60;;;;;;5019822;28;20075;-83
2022/11/05 04:49:45;;;;;;;17.02;8.10;;;8.70;91.60;;;;;;5016403;28;20077;-82
2022/11/05 04:52:10;;;;;;;13.82;8.45;;;8.70;91.70;;;;;;5014423;28;20034;-82
2022/11/05 04:54:37;;;;;;;14.32;7.57;;;8.70;91.90;;;;;;5018602;28;20029;-80
2022/11/05 04:57:02;;;;;;;9.68;6.72;;;8.70;91.90;;;;;;5025330;28;20033;-81
2022/11/05 04:59:28;;;;;;;11.00;6.72;;;8.60;91.70;;;;;;5019764;28;20041;-81
2022/11/05 05:01:53;;;;;;;11.90;6.90;;;8.60;91.70;;;;;;5020483;28;20710;-80
2022/11/05 05:04:19;;;;;;;10.75;6.35;;;8.60;91.60;;;;;;5026961;28;20052;-81
2022/11/05 05:06:45;;;;;;;13.20;8.07;;;8.60;91.60;;;;;;5016923;28;20021;-81
2022/11/05 05:09:10;;;;;;;15.82;8.30;;;8.60;91.90;;;;;;5024391;28;20503;-80
2022/11/05 05:11:36;;;;;;;13.27;8.18;;;8.60;91.50;;;;;;5021437;28;20029;-80
2022/11/05 05:14:01;;;;;;;10.27;6.97;;;8.60;91.50;;;;;;5021842;28;20025;-82
2022/11/05 05:16:29;;;;;;;12.70;7.38;;;8.60;91.50;;;;;;5024610;28;20033;-81
2022/11/05 05:18:56;;;;;;;13.90;8.20;;;8.60;91.40;;;;;;5018691;28;20026;-80
2022/11/05 05:21:37;;;;;;;12.02;7.15;;;8.60;91.40;;;;;;5018022;28;20044;-82
2022/11/05 05:24:14;;;;;;;16.15;9.27;;;8.60;91.40;;;;;;5014891;28;20046;-80
2022/11/05 05:26:43;;;;;;;13.80;8.00;;;8.50;91.60;;;;;;5019715;28;20507;-80
2022/11/05 05:29:10;;;;;;;10.55;7.05;;;8.50;91.60;;;;;;5019033;28;20037;-81
2022/11/05 05:31:36;;;;;;;12.63;8.05;;;8.50;91.50;;;;;;5016709;28;20029;-81
2022/11/05 05:34:03;;;;;;;13.82;8.40;;;8.50;91.50;;;;;;5020793;28;20022;-81
2022/11/05 05:36:29;;;;;;;17.38;9.25;;;8.40;91.50;;;;;;5021504;28;20091;-81
2022/11/05 05:38:54;;;;;;;13.68;8.77;;;8.40;91.60;;;;;;5023316;28;20117;-81
2022/11/05 05:41:20;;;;;;;16.02;9.18;;;8.40;91.80;;;;;;5020081;28;20442;-82
2022/11/05 05:43:47;;;;;;;12.70;8.43;;;8.40;91.80;;;;;;5022931;28;20013;-84
2022/11/05 05:46:15;;;;;;;20.63;10.73;;;8.40;91.90;;;;;;5017840;28;20059;-81
2022/11/05 05:48:42;;;;;;;18.30;10.35;;;8.30;91.90;;;;;;5025413;28;20040;-82
2022/11/05 05:51:11;;;;;;;14.55;8.23;;;8.30;92.00;;;;;;5023717;28;20127;-82
2022/11/05 05:53:37;;;;;;;18.27;10.02;;;8.30;92.00;;;;;;5015920;28;20128;-80
2022/11/05 05:56:04;;;;;;;15.20;9.35;;;8.20;92.10;;;;;;5015450;28;20105;-81
2022/11/05 05:58:32;;;;;;;18.85;11.30;;;8.20;92.20;;;;;;5019210;28;20433;-82
2022/11/05 06:01:04;;;;;;;15.20;7.88;;;8.20;92.40;;;;;;5020799;28;20197;-81
2022/11/05 06:03:30;;;;;;;18.02;9.82;;;8.10;92.40;;;;;;5017506;28;20036;-81
2022/11/05 06:06:04;;;;;;;16.48;9.88;;;8.10;92.50;;;;;;5016535;28;20133;-81
2022/11/05 06:08:30;;;;;;;12.48;8.93;;;8.10;92.60;;;;;;5017629;28;20909;-81
2022/11/05 06:10:57;;;;;;;15.57;9.38;;;8.10;92.60;;;;;;5022473;28;20378;-80
2022/11/05 06:13:23;;;;;;;12.82;8.60;;;8.10;92.60;;;;;;5014017;28;20029;-81
2022/11/05 06:15:49;;;;;;;14.80;7.57;;;8.10;92.50;;;;;;5022273;28;20047;-81
2022/11/05 06:18:14;;;;;;;14.38;8.95;;;8.10;92.40;;;;;;5015158;28;20049;-82
2022/11/05 06:20:40;;;;;;;14.98;9.13;;;8.10;92.30;;;;;;5022660;28;20048;-80
2022/11/05 06:23:06;;;;;;;11.65;8.43;;;8.10;92.40;;;;;;5016969;28;20458;-80
2022/11/05 06:25:33;;;;;;;16.50;11.00;;;8.10;92.40;;;;;;5018840;28;20105;-81
2022/11/05 06:27:59;;;;;;;15.55;10.38;;;8.10;92.40;;;;;;5013186;28;20065;-79
2022/11/05 06:30:24;;;;;;;19.60;12.02;;;8.10;92.30;;;;;;5021255;28;20551;-76
2022/11/05 06:32:50;;;;;;;19.50;11.60;;;8.10;92.20;;;;;;5020303;28;20034;-79
2022/11/05 06:35:15;;;;;;;17.52;8.77;;;8.30;92.60;;;;;;5018946;28;20084;-78
2022/11/05 06:37:41;;;;;;;21.27;9.65;;;8.60;92.80;;;;;;5022794;28;20038;-78
2022/11/05 06:40:07;;;;;;;22.40;11.85;;;9.20;93.50;;;;;;5020486;28;20048;-77
2022/11/05 06:42:33;;;;;;;24.98;13.38;;;9.80;93.80;;;;;;5013847;28;20061;-79
2022/11/05 06:44:59;;;;;;;32.05;14.20;;;10.30;94.30;;;;;;5013087;28;20108;-79
2022/11/05 06:47:24;;;;;;;21.30;11.18;;;10.50;94.70;;;;;;5018771;28;20033;-78
2022/11/05 06:49:51;;;;;;;13.07;9.15;;;10.90;95.10;;;;;;5019816;28;20030;-78
2022/11/05 06:52:18;;;;;;;11.45;7.82;;;11.20;95.30;;;;;;5016184;28;20108;-77
2022/11/05 06:54:43;;;;;;;10.93;6.38;;;11.40;95.20;;;;;;5015707;28;20084;-77
2022/11/05 06:57:11;;;;;;;11.55;5.63;;;11.50;94.80;;;;;;5019161;28;20076;-78
2022/11/05 06:59:38;;;;;;;14.27;5.35;;;11.70;94.70;;;;;;5015854;28;20036;-78
2022/11/05 07:02:06;;;;;;;13.88;5.35;;;11.90;94.50;;;;;;5017929;28;20135;-77
2022/11/05 07:04:32;;;;;;;11.95;5.18;;;12.10;94.10;;;;;;5019666;28;20029;-77
2022/11/05 07:06:59;;;;;;;9.90;4.70;;;12.20;93.60;;;;;;5019669;28;20022;-78
2022/11/05 07:09:25;;;;;;;10.43;4.55;;;12.30;93.40;;;;;;5016641;28;20018;-78
2022/11/05 07:11:51;;;;;;;9.07;4.28;;;12.70;93.00;;;;;;5014421;28;20021;-77
2022/11/05 07:14:16;;;;;;;11.73;5.80;;;12.90;92.30;;;;;;5015793;28;20030;-77
2022/11/05 07:16:42;;;;;;;14.90;5.75;;;13.20;91.70;;;;;;5017417;28;20045;-76
2022/11/05 07:19:08;;;;;;;11.10;4.97;;;13.30;90.80;;;;;;5013799;28;20034;-76
2022/11/05 07:21:34;;;;;;;14.68;5.80;;;13.50;89.80;;;;;;5022696;28;20131;-77
2022/11/05 07:24:00;;;;;;;11.30;4.60;;;13.70;89.10;;;;;;5015860;28;20156;-77
2022/11/05 07:26:26;;;;;;;15.77;5.00;;;14.00;88.30;;;;;;5026171;28;20033;-78
2022/11/05 07:28:53;;;;;;;11.65;5.18;;;14.20;87.10;;;;;;5017243;28;20030;-79
2022/11/05 07:31:20;;;;;;;10.80;3.92;;;14.50;85.20;;;;;;5017246;28;20026;-76
2022/11/05 07:33:45;;;;;;;12.18;5.63;;;14.50;84.30;;;;;;5028640;28;20507;-77
2022/11/05 07:36:11;;;;;;;12.00;5.97;;;14.60;81.90;;;;;;5010133;28;20026;-77
2022/11/05 07:38:37;;;;;;;12.13;6.03;;;14.70;75.40;;;;;;5023983;28;20045;-78
2022/11/05 07:41:03;;;;;;;19.55;6.10;;;14.60;74.10;;;;;;5026693;28;20099;-76
2022/11/05 07:43:28;;;;;;;13.02;5.68;;;14.60;74.60;;;;;;5025005;28;20143;-77
2022/11/05 07:45:54;;;;;;;10.30;5.28;;;14.50;74.10;;;;;;5018272;28;20028;-77
2022/11/05 07:48:21;;;;;;;17.17;7.68;;;14.50;74.10;;;;;;5019940;28;20112;-76
2022/11/05 07:50:51;;;;;;;17.55;9.02;;;14.40;73.80;;;;;;5017689;28;20024;-76
2022/11/05 07:53:19;;;;;;;19.17;8.68;;;14.30;73.80;;;;;;5017812;28;20032;-77
2022/11/05 07:55:45;;;;;;;17.65;7.07;;;14.30;72.90;;;;;;5017928;28;20032;-77
2022/11/05 07:58:12;;;;;;;12.55;6.40;;;14.30;73.00;;;;;;5017888;28;20026;-78
2022/11/05 08:00:37;;;;;;;17.80;7.40;;;14.20;73.20;;;;;;5017539;28;20026;-78
2022/11/05 08:03:12;;;;;;;12.93;6.22;;;14.20;74.10;;;;;;5018620;28;20789;-77
2022/11/05 08:05:39;;;;;;;13.45;5.03;;;14.20;73.60;;;;;;5019897;28;20076;-78
2022/11/05 08:08:07;;;;;;;12.25;8.05;;;14.30;74.00;;;;;;5019581;28;20099;-77
2022/11/05 08:10:33;;;;;;;12.25;7.38;;;14.30;72.80;;;;;;5020546;28;20021;-78
2022/11/05 08:13:00;;;;;;;9.93;6.25;;;14.40;72.80;;;;;;5021594;28;20116;-79
2022/11/05 08:15:26;;;;;;;9.00;5.47;;;14.50;72.90;;;;;;5022919;28;20391;-77
2022/11/05 08:18:09;;;;;;;11.18;5.18;;;14.60;73.10;;;;;;5016832;28;20030;-78
2022/11/05 08:20:35;;;;;;;10.60;5.47;;;14.60;72.70;;;;;;5014143;28;20030;-78
2022/11/05 08:23:01;;;;;;;12.27;4.93;;;14.60;72.20;;;;;;5008880;28;20054;-76
2022/11/05 08:25:27;;;;;;;11.60;5.10;;;14.70;72.80;;;;;;5029120;28;20091;-78
2022/11/05 08:27:57;;;;;;;8.93;4.80;;;14.70;71.90;;;;;;5013757;28;20026;-78
2022/11/05 08:30:23;;;;;;;9.73;4.53;;;14.60;72.00;;;;;;5018994;28;20369;-78
2022/11/05 08:32:49;;;;;;;6.65;4.10;;;14.60;72.60;;;;;;5015933;28;20056;-78
2022/11/05 08:35:15;;;;;;;8.55;4.93;;;14.50;72.20;;;;;;5016425;28;20404;-78
2022/11/05 08:37:40;;;;;;;16.85;6.25;;;14.50;72.00;;;;;;5020331;28;20111;-77
2022/11/05 08:40:06;;;;;;;9.82;6.00;;;14.50;72.00;;;;;;5016243;28;20026;-78
2022/11/05 08:42:32;;;;;;;13.32;4.03;;;14.50;72.00;;;;;;5016651;28;20034;-78
2022/11/05 08:44:59;;;;;;;9.00;4.45;;;14.60;74.00;;;;;;5015648;28;20386;-78
2022/11/05 08:47:24;;;;;;;10.88;3.92;;;15.00;74.30;;;;;;5015715;28;20547;-77
2022/11/05 08:49:50;;;;;;;8.10;3.80;;;15.30;74.30;;;;;;5022368;28;20104;-77
2022/11/05 08:52:16;;;;;;;9.48;3.47;;;15.70;74.00;;;;;;5015061;28;20083;-77
2022/11/05 08:54:43;;;;;;;10.80;3.65;;;16.00;73.50;;;;;;5013999;28;20025;-76
2022/11/05 08:57:09;;;;;;;8.27;4.22;;;16.20;73.10;;;;;;5010498;28;20061;-75
2022/11/05 08:59:34;;;;;;;13.82;3.53;;;16.50;72.50;;;;;;5025927;28;20514;-77
2022/11/05 09:02:00;;;;;;;9.23;3.80;;;16.70;72.30;;;;;;5012419;28;20022;-78
2022/11/05 09:04:25;;;;;;;7.45;3.38;;;17.00;71.40;;;;;;5016984;28;20013;-78
2022/11/05 09:06:51;;;;;;;8.57;3.55;;;17.30;70.60;;;;;;5023319;28;20049;-77
2022/11/05 09:09:17;;;;;;;10.63;3.38;;;17.40;69.50;;;;;;5020597;28;20025;-77
2022/11/05 09:11:42;;;;;;;7.10;3.50;;;17.60;70.10;;;;;;5016273;28;20030;-79
2022/11/05 09:14:08;;;;;;;5.18;2.72;;;17.70;69.70;;;;;;5013014;28;20034;-77
2022/11/05 09:16:35;;;;;;;8.63;3.25;;;17.80;70.00;;;;;;5018939;28;20092;-77
2022/11/05 09:19:03;;;;;;;6.65;2.67;;;17.80;69.80;;;;;;5021925;28;20029;-77
2022/11/05 09:21:29;;;;;;;5.43;2.90;;;17.70;70.40;;;;;;5024026;28;20029;-76
2022/11/05 09:23:55;;;;;;;7.93;3.15;;;17.70;69.80;;;;;;5020366;28;20045;-80
2022/11/05 09:26:20;;;;;;;6.45;2.60;;;17.80;69.80;;;;;;5018907;28;20381;-76
2022/11/05 09:28:46;;;;;;;5.93;3.13;;;17.90;70.10;;;;;;5021233;28;20033;-77
2022/11/05 09:31:12;;;;;;;8.15;3.05;;;18.00;70.00;;;;;;5022803;28;20018;-76
2022/11/05 09:33:40;;;;;;;10.93;4.80;;;18.20;70.90;;;;;;5015291;28;20053;-83
2022/11/05 09:36:07;;;;;;;7.32;4.57;;;18.20;67.10;;;;;;5018606;28;20468;-79
2022/11/05 09:38:33;;;;;;;11.95;5.93;;;18.20;64.00;;;;;;5013556;28;20069;-79
2022/11/05 09:41:24;;;;;;;12.52;4.70;;;18.10;63.60;;;;;;5013284;28;20682;-81
2022/11/05 09:43:55;;;;;;;12.52;5.25;;;17.90;65.00;;;;;;5009303;28;20037;-82
2022/11/05 09:46:26;;;;;;;9.65;5.10;;;17.80;63.30;;;;;;5010788;28;20054;-79
2022/11/05 09:48:56;;;;;;;6.35;3.00;;;17.70;63.00;;;;;;5015096;28;20473;-80
2022/11/05 09:51:22;;;;;;;9.73;4.88;;;17.50;65.90;;;;;;5008281;28;20068;-76
2022/11/05 09:53:48;;;;;;;11.18;4.85;;;17.40;67.20;;;;;;5011662;28;20108;-78
2022/11/05 09:56:27;;;;;;;9.07;5.28;;;17.20;64.20;;;;;;5008897;28;20038;-77
2022/11/05 09:59:17;;;;;;;7.60;3.33;;;17.10;65.70;;;;;;5006696;28;20080;-78
2022/11/05 10:01:45;;;;;;;13.55;4.43;;;17.00;69.60;;;;;;5010017;28;20118;-83
2022/11/05 10:04:19;;;;;;;9.68;5.20;;;17.00;67.00;;;;;;5009239;28;20727;-78
2022/11/05 10:06:50;;;;;;;9.20;3.78;;;17.10;67.00;;;;;;5010148;28;20550;-77
2022/11/05 10:09:34;;;;;;;12.05;5.20;;;17.00;67.00;;;;;;5007625;28;20061;-80
2022/11/05 10:12:21;;;;;;;9.45;4.68;;;17.10;68.60;;;;;;5012423;28;20025;-80
2022/11/05 10:14:54;;;;;;;7.80;4.15;;;17.10;65.00;;;;;;5008975;28;20033;-80
2022/11/05 10:17:27;;;;;;;9.52;5.07;;;17.10;65.60;;;;;;5009733;28;20121;-82
2022/11/05 10:19:53;;;;;;;9.65;4.38;;;17.20;65.10;;;;;;5011487;28;20061;-84
2022/11/05 10:22:19;;;;;;;8.90;4.97;;;17.40;65.30;;;;;;5008982;28;20081;-83
2022/11/05 10:24:47;;;;;;;8.52;3.80;;;17.50;66.40;;;;;;5010160;28;20017;-83
2022/11/05 10:27:27;;;;;;;10.13;4.88;;;17.60;64.10;;;;;;5007423;28;20040;-81
2022/11/05 10:29:54;;;;;;;9.73;5.50;;;17.60;63.80;;;;;;5009163;28;20434;-83
2022/11/05 10:32:37;;;;;;;12.02;5.20;;;17.60;66.50;;;;;;5005982;28;20030;-83
2022/11/05 10:35:06;;;;;;;11.35;5.30;;;17.60;63.20;;;;;;5009127;28;20500;-82
2022/11/05 10:37:33;;;;;;;11.85;6.15;;;17.60;62.50;;;;;;5013755;28;20044;-83
2022/11/05 10:39:59;;;;;;;10.88;5.03;;;17.60;62.50;;;;;;5008765;28;20073;-84
2022/11/05 10:42:32;;;;;;;7.70;4.22;;;17.60;65.50;;;;;;5014759;28;20484;-83
2022/11/05 10:45:49;;;;;;;8.98;4.53;;;17.70;69.80;;;;;;5009205;28;20080;-84
2022/11/05 10:48:34;;;;;;;13.40;6.25;;;17.60;64.30;;;;;;4998402;28;20045;-82
2022/11/05 10:51:00;;;;;;;9.60;3.42;;;17.30;66.30;;;;;;5012155;28;20491;-82
2022/11/05 10:53:35;;;;;;;8.90;4.47;;;17.10;70.30;;;;;;5016019;28;20060;-85
2022/11/05 10:56:01;;;;;;;10.95;5.65;;;17.00;69.80;;;;;;5014619;28;20018;-82
2022/11/05 10:58:34;;;;;;;9.43;5.28;;;16.70;68.70;;;;;;5022262;28;20557;-84
2022/11/05 11:01:10;;;;;;;11.15;4.63;;;16.50;70.70;;;;;;5019646;28;20492;-80
2022/11/05 11:03:42;;;;;;;8.63;4.68;;;16.30;73.30;;;;;;5018196;28;20807;-80
2022/11/05 11:06:30;;;;;;;7.88;4.53;;;16.10;68.40;;;;;;5013428;28;20029;-82
2022/11/05 11:09:04;;;;;;;8.85;3.97;;;16.00;72.50;;;;;;5012164;28;20032;-80
2022/11/05 11:11:35;;;;;;;11.52;5.53;;;15.90;73.00;;;;;;5013068;28;20026;-80
2022/11/05 11:14:21;;;;;;;10.95;5.50;;;15.80;72.60;;;;;;5015954;28;20064;-81
2022/11/05 11:16:56;;;;;;;9.52;6.05;;;15.70;73.60;;;;;;5017737;28;20045;-80
2022/11/05 11:19:35;;;;;;;9.10;4.22;;;15.50;71.90;;;;;;5015939;28;20117;-79
2022/11/05 11:22:03;;;;;;;12.30;6.47;;;15.40;74.70;;;;;;5011859;28;20021;-80
2022/11/05 11:24:35;;;;;;;10.70;5.45;;;15.30;70.30;;;;;;5014138;28;20090;-83
2022/11/05 11:27:08;;;;;;;10.18;5.85;;;15.20;71.90;;;;;;5012389;28;20455;-81
2022/11/05 11:29:38;;;;;;;11.40;5.25;;;15.00;72.00;;;;;;5013510;28;20029;-82
2022/11/05 11:32:14;;;;;;;9.88;4.28;;;14.90;72.00;;;;;;5009293;28;20159;-79
2022/11/05 11:34:44;;;;;;;11.75;6.35;;;14.90;74.30;;;;;;5018532;28;20028;-81
2022/11/05 11:37:20;;;;;;;7.82;3.40;;;14.80;74.50;;;;;;5012160;28;20099;-82
2022/11/05 11:39:49;;;;;;;10.85;5.15;;;14.80;77.40;;;;;;5008096;28;20068;-83
2022/11/05 11:42:23;;;;;;;12.20;5.70;;;14.70;74.30;;;;;;5013990;28;20029;-81
2022/11/05 11:44:49;;;;;;;9.23;4.35;;;14.70;75.80;;;;;;5008014;28;20104;-81
2022/11/05 11:47:18;;;;;;;11.65;5.45;;;14.60;77.00;;;;;;5011669;28;20053;-82
2022/11/05 11:49:51;;;;;;;10.32;4.70;;;14.60;72.30;;;;;;5010939;28;20188;-79
2022/11/05 11:52:37;;;;;;;6.85;3.90;;;14.50;74.00;;;;;;5014230;28;20410;-82
2022/11/05 11:55:11;;;;;;;9.50;4.82;;;14.50;75.40;;;;;;5015814;28;20029;-80
2022/11/05 11:57:49;;;;;;;10.88;5.40;;;14.40;74.20;;;;;;5011093;28;20026;-82
2022/11/05 12:00:16;;;;;;;10.60;4.93;;;14.20;72.70;;;;;;5030997;28;20024;-81
2022/11/05 12:02:58;;;;;;;13.65;5.97;;;14.10;74.20;;;;;;5009983;28;20029;-79
2022/11/05 12:05:44;;;;;;;10.27;5.80;;;14.00;72.90;;;;;;5010114;28;20476;-77
2022/11/05 12:08:45;;;;;;;13.48;5.47;;;14.10;74.20;;;;;;5017356;28;20590;-75
2022/11/05 12:11:30;;;;;;;16.50;6.80;;;14.20;74.00;;;;;;5027660;28;20032;-75
2022/11/05 12:14:01;;;;;;;11.55;6.30;;;14.20;73.40;;;;;;5008516;28;20142;-76
2022/11/05 12:16:35;;;;;;;11.10;5.35;;;14.20;73.00;;;;;;5012160;28;20025;-76
2022/11/05 12:19:22;;;;;;;10.05;5.60;;;14.20;74.10;;;;;;5026432;28;20053;-76
2022/11/05 12:22:19;;;;;;;9.05;5.47;;;14.10;74.20;;;;;;5010725;28;20022;-75
2022/11/05 12:25:14;;;;;;;13.48;5.63;;;13.90;74.00;;;;;;5011061;28;20451;-76
2022/11/05 12:27:56;;;;;;;7.85;4.50;;;13.90;74.40;;;;;;5015939;28;20037;-78
2022/11/05 12:30:22;;;;;;;13.68;6.00;;;13.80;76.40;;;;;;5023424;28;20027;-76
2022/11/05 12:33:21;;;;;;;8.20;4.78;;;13.80;76.00;;;;;;5017822;28;20037;-75
2022/11/05 12:36:20;;;;;;;9.43;5.47;;;13.80;75.10;;;;;;5015457;28;20041;-76
2022/11/05 12:39:18;;;;;;;10.82;5.75;;;13.80;75.20;;;;;;5024127;28;20112;-76
2022/11/05 12:42:37;;;;;;;9.57;4.55;;;13.70;75.70;;;;;;5014480;28;20018;-76
2022/11/05 12:45:39;;;;;;;11.30;5.90;;;13.70;75.20;;;;;;5027985;28;20188;-77
2022/11/05 12:48:20;;;;;;;11.50;5.80;;;13.70;75.60;;;;;;4993682;28;20455;-76
2022/11/05 12:50:54;;;;;;;14.75;5.05;;;13.70;76.30;;;;;;5021754;28;20022;-76
2022/11/05 12:53:38;;;;;;;12.48;5.78;;;13.70;75.20;;;;;;5024194;28;20032;-78
2022/11/05 12:56:24;;;;;;;10.27;5.57;;;13.80;76.70;;;;;;5025684;28;20025;-76
2022/11/05 12:58:59;;;;;;;10.85;5.70;;;13.70;76.20;;;;;;5014848;28;20046;-76
2022/11/05 13:01:33;;;;;;;11.52;5.43;;;13.80;76.80;;;;;;5012813;28;20492;-75
2022/11/05 13:04:12;;;;;;;11.25;5.57;;;13.90;76.50;;;;;;5017333;28;20176;-76
2022/11/05 13:06:41;;;;;;;11.10;5.97;;;13.90;75.50;;;;;;5010709;28;20030;-77
2022/11/05 13:09:16;;;;;;;14.48;5.93;;;13.90;75.20;;;;;;5019698;28;20116;-76
2022/11/05 13:11:56;;;;;;;12.85;6.10;;;13.90;76.40;;;;;;5020744;28;20481;-77
2022/11/05 13:14:39;;;;;;;11.00;6.20;;;13.80;75.30;;;;;;5018402;28;20506;-76
2022/11/05 13:17:14;;;;;;;11.40;5.97;;;13.60;76.50;;;;;;5023191;28;20721;-76
2022/11/05 13:19:53;;;;;;;12.30;5.97;;;13.60;76.00;;;;;;5016915;28;20065;-77
2022/11/05 13:22:40;;;;;;;12.68;6.35;;;13.50;76.10;;;;;;5008922;28;20054;-76
2022/11/05 13:25:28;;;;;;;10.05;5.43;;;13.50;76.60;;;;;;5014060;28;20038;-76
2022/11/05 13:28:02;;;;;;;11.73;5.95;;;13.60;77.20;;;;;;5016448;28;20026;-76
2022/11/05 13:30:41;;;;;;;15.00;6.50;;;13.60;76.30;;;;;;5017314;28;20033;-76
2022/11/05 13:33:15;;;;;;;11.35;6.53;;;13.50;76.60;;;;;;5009238;28;20060;-76
2022/11/05 13:38:57;;;;;;;7.72;3.75;;;13.50;76.70;;;;;;5023903;28;20021;-75
2022/11/05 13:38:58;;;;;;;12.50;6.80;;;13.50;78.60;;;;;;5017489;28;20060;-76
2022/11/05 13:41:59;;;;;;;9.40;4.78;;;13.60;77.60;;;;;;5023473;28;20030;-78
2022/11/05 13:44:46;;;;;;;13.13;6.38;;;13.70;80.80;;;;;;5023864;28;20022;-76
2022/11/05 13:47:18;;;;;;;12.52;6.63;;;13.60;77.30;;;;;;5023952;28;20025;-76